Aviation Digital Data Service (ADDS)

Output produced by METARs form (0827 UTC 01 March 2015)
found at http://aviationweather.gov/adds/metars/
 
KATL 010743Z 0108/0212 09012KT 5SM -RADZ BKN008 
     FM011000 08010KT 2SM -RADZ OVC004 
     FM011500 08008KT 4SM -RADZ OVC007 
     FM012100 08005KT 6SM BR BKN012 
     FM020300 17003KT 2SM -DZ OVC008 
     FM020600 22002KT 1SM -DZ OVC004